createdAt,value
2018-11-01T05:58:31.641Z,31.77
2018-11-01T06:01:01.749Z,30.53
2018-11-01T06:03:30.734Z,32.23
2018-11-01T06:05:59.440Z,30.37
2018-11-01T06:08:31.873Z,35.80
2018-11-01T06:11:00.685Z,31.47
2018-11-01T06:13:29.469Z,29.93
2018-11-01T06:15:58.161Z,34.93
2018-11-01T06:18:26.870Z,29.73
2018-11-01T06:20:55.620Z,31.40
2018-11-01T06:23:24.313Z,31.30
2018-11-01T06:25:52.964Z,35.37
2018-11-01T06:28:21.731Z,30.03
2018-11-01T06:30:50.494Z,23.60
2018-11-01T06:33:19.213Z,26.23
2018-11-01T06:35:50.300Z,31.20
2018-11-01T06:38:18.997Z,29.37
2018-11-01T06:40:48.057Z,35.90
2018-11-01T06:43:16.714Z,30.90
2018-11-01T06:45:50.710Z,32.27
2018-11-01T06:48:19.501Z,35.37
2018-11-01T06:50:48.314Z,28.20
2018-11-01T06:53:17.052Z,26.60
2018-11-01T06:55:45.789Z,29.57
2018-11-01T06:58:14.556Z,34.47
2018-11-01T07:00:43.232Z,29.90
2018-11-01T07:03:11.973Z,36.70
2018-11-01T07:05:40.756Z,32.23
2018-11-01T07:08:09.421Z,22.73
2018-11-01T07:10:38.081Z,27.40
2018-11-01T07:13:06.880Z,31.57
2018-11-01T07:15:35.624Z,31.67
2018-11-01T07:18:04.548Z,31.57
2018-11-01T07:20:33.347Z,32.53
2018-11-01T07:23:02.044Z,28.33
2018-11-01T07:25:30.856Z,27.53
2018-11-01T07:27:59.587Z,23.90
2018-11-01T07:30:28.249Z,26.00
2018-11-01T07:32:56.935Z,29.10
2018-11-01T07:35:25.609Z,24.53
2018-11-01T07:37:54.321Z,27.33
2018-11-01T07:40:23.128Z,32.00
2018-11-01T07:42:51.859Z,31.60
2018-11-01T07:45:20.626Z,38.43
2018-11-01T07:47:49.440Z,32.53
2018-11-01T07:50:18.214Z,38.17
2018-11-01T07:52:47.080Z,38.37
2018-11-01T07:55:16.770Z,34.30
2018-11-01T07:57:45.501Z,42.07
2018-11-01T08:00:16.425Z,38.87
2018-11-01T08:02:46.103Z,38.30
2018-11-01T08:05:15.118Z,37.80
2018-11-01T08:07:43.892Z,36.63
2018-11-01T08:10:17.452Z,36.60
2018-11-01T08:12:46.920Z,34.23
2018-11-01T08:15:18.011Z,44.00
2018-11-01T08:17:46.777Z,37.03
2018-11-01T08:20:16.206Z,42.37
2018-11-01T08:22:44.778Z,40.10
2018-11-01T08:25:13.984Z,34.80
2018-11-01T08:27:43.234Z,31.27
2018-11-01T08:30:14.182Z,38.67
2018-11-01T08:32:43.004Z,33.13
2018-11-01T08:35:12.093Z,30.47
2018-11-01T08:37:41.928Z,32.80
2018-11-01T08:40:11.433Z,31.30
2018-11-01T08:42:40.532Z,29.43
2018-11-01T08:45:11.080Z,31.37
2018-11-01T08:47:39.939Z,28.10
2018-11-01T08:50:10.172Z,28.83
2018-11-01T08:52:39.283Z,33.43
2018-11-01T08:55:08.672Z,32.37
2018-11-01T08:57:37.649Z,33.67
2018-11-01T09:00:10.993Z,33.50
2018-11-01T09:02:40.031Z,35.73
2018-11-01T09:05:10.131Z,35.27
2018-11-01T09:07:39.426Z,38.03
2018-11-01T09:10:10.577Z,29.37
2018-11-01T09:12:39.408Z,32.90
2018-11-01T09:15:09.699Z,46.70
2018-11-01T09:17:38.494Z,36.53
2018-11-01T09:20:08.222Z,38.77
2018-11-01T09:22:36.943Z,35.07
2018-11-01T09:25:06.007Z,36.47
2018-11-01T09:27:34.790Z,33.10
2018-11-01T09:30:07.718Z,29.87
2018-11-01T09:32:36.420Z,36.43
2018-11-01T09:35:05.540Z,32.27
2018-11-01T09:37:34.308Z,40.10
2018-11-01T09:40:03.040Z,33.20
2018-11-01T09:42:31.757Z,47.87
2018-11-01T09:45:00.491Z,30.87
2018-11-01T09:47:29.729Z,40.37
2018-11-01T09:49:58.013Z,37.97
2018-11-01T09:52:26.853Z,44.97
2018-11-01T09:54:55.657Z,37.73
2018-11-01T09:57:24.361Z,41.90
2018-11-01T09:59:53.237Z,36.60
2018-11-01T10:02:21.926Z,37.20
2018-11-01T10:04:50.703Z,44.00
2018-11-01T10:07:19.769Z,42.30
2018-11-01T10:09:48.460Z,37.97
2018-11-01T10:12:17.331Z,38.47
2018-11-01T10:14:46.034Z,34.97
2018-11-01T10:17:15.083Z,41.03
2018-11-01T10:19:43.737Z,44.63
2018-11-01T10:22:12.517Z,39.67
2018-11-01T10:24:41.164Z,39.47
2018-11-01T10:27:19.513Z,38.10
2018-11-01T10:29:38.792Z,43.43
2018-11-01T10:32:07.612Z,40.07
2018-11-01T10:34:36.346Z,42.17
2018-11-01T10:37:05.054Z,34.43
2018-11-01T10:39:33.761Z,40.67
2018-11-01T10:42:02.464Z,40.00
2018-11-01T10:44:31.182Z,44.83
2018-11-01T10:46:59.856Z,37.43
2018-11-01T10:49:28.562Z,34.63
2018-11-01T10:51:57.286Z,45.97
2018-11-01T10:54:26.029Z,36.30
2018-11-01T10:56:54.741Z,41.90
2018-11-01T10:59:32.282Z,38.80
2018-11-01T11:02:06.097Z,38.77
2018-11-01T11:04:34.865Z,36.70
2018-11-01T11:07:03.534Z,40.80
2018-11-01T11:09:32.743Z,45.40
2018-11-01T11:12:01.513Z,38.70
2018-11-01T11:14:30.326Z,37.60
2018-11-01T11:16:59.901Z,44.40
2018-11-01T11:19:28.569Z,45.27
2018-11-01T11:21:57.236Z,36.97
2018-11-01T11:24:25.917Z,39.83
2018-11-01T11:29:35.977Z,42.00
2018-11-01T11:32:04.736Z,31.93
2018-11-01T11:34:33.460Z,30.67
2018-11-01T11:37:02.123Z,39.37
2018-11-01T11:39:30.835Z,40.43
2018-11-01T11:41:59.567Z,33.63
2018-11-01T11:44:28.270Z,41.40
2018-11-01T11:46:56.981Z,40.43
2018-11-01T11:49:25.620Z,33.37
2018-11-01T11:51:54.389Z,38.93
2018-11-01T11:54:23.144Z,33.23
2018-11-01T11:56:51.995Z,38.03
2018-11-01T11:59:20.717Z,37.73
2018-11-01T12:01:49.445Z,32.60
2018-11-01T12:04:18.178Z,30.33
2018-11-01T12:06:46.916Z,35.33
2018-11-01T12:09:15.715Z,30.27
2018-11-01T12:11:44.617Z,26.60
2018-11-01T12:14:13.443Z,22.77
2018-11-01T12:16:43.496Z,26.00
2018-11-01T12:19:12.183Z,25.13
2018-11-01T12:21:40.953Z,25.77
2018-11-01T12:24:09.656Z,23.43
2018-11-01T12:26:38.357Z,27.80
2018-11-01T12:29:07.248Z,26.00
2018-11-01T12:31:35.810Z,26.80
2018-11-01T12:34:05.221Z,27.20
2018-11-01T12:36:33.901Z,26.07
2018-11-01T12:39:02.590Z,30.97
2018-11-01T12:41:31.423Z,30.47
2018-11-01T12:44:00.147Z,30.90
2018-11-01T12:46:31.641Z,23.97
2018-11-01T12:49:00.397Z,26.33
2018-11-01T12:51:29.929Z,31.70
2018-11-01T12:53:59.087Z,25.07
2018-11-01T12:56:27.782Z,33.93
2018-11-01T12:58:56.539Z,33.43
2018-11-01T13:01:25.379Z,28.13
2018-11-01T13:03:54.060Z,29.63
2018-11-01T13:06:22.829Z,30.37
2018-11-01T13:08:51.561Z,27.07
2018-11-01T13:11:20.280Z,29.90
2018-11-01T13:13:49.096Z,35.17
2018-11-01T13:16:17.866Z,26.67
2018-11-01T13:18:46.649Z,32.20
2018-11-01T13:21:15.488Z,30.80
2018-11-01T13:23:44.246Z,26.53
2018-11-01T13:26:13.015Z,33.77
2018-11-01T13:28:41.702Z,34.03
2018-11-01T13:31:10.455Z,30.70
2018-11-01T13:33:39.179Z,30.97
2018-11-01T13:36:07.898Z,30.93
2018-11-01T13:38:36.705Z,26.17
2018-11-01T13:41:06.480Z,26.20
2018-11-01T13:43:34.762Z,30.57
2018-11-01T13:46:03.481Z,28.13
2018-11-01T13:48:32.326Z,33.83
2018-11-01T13:51:01.050Z,36.57
2018-11-01T13:53:29.765Z,38.40
2018-11-01T13:55:58.502Z,31.47
2018-11-01T13:58:27.195Z,35.00
2018-11-01T14:00:55.994Z,33.00
2018-11-01T14:03:24.750Z,26.70
2018-11-01T14:05:53.555Z,37.93
2018-11-01T14:08:22.230Z,38.60
2018-11-01T14:10:50.990Z,29.20
2018-11-01T14:13:19.771Z,32.87
2018-11-01T14:15:48.429Z,29.90
2018-11-01T14:18:17.230Z,30.87
2018-11-01T14:20:45.972Z,27.63
2018-11-01T14:23:14.662Z,23.57
2018-11-01T14:25:43.426Z,34.50
2018-11-01T14:28:12.133Z,31.73
2018-11-01T14:30:40.855Z,31.40
2018-11-01T14:33:09.851Z,24.70
2018-11-01T14:35:38.509Z,26.80
2018-11-01T14:38:07.195Z,34.47
2018-11-01T14:40:35.869Z,32.37
2018-11-01T14:43:04.788Z,23.50
2018-11-01T14:45:33.617Z,25.13
2018-11-01T14:48:02.345Z,24.13
2018-11-01T14:50:31.058Z,22.53
2018-11-01T14:53:00.748Z,26.07
2018-11-01T14:55:30.366Z,19.47
2018-11-01T14:57:59.250Z,29.03
2018-11-01T15:00:26.741Z,28.03
2018-11-01T15:02:55.771Z,20.10
2018-11-01T15:05:24.555Z,24.73
2018-11-01T15:07:53.241Z,25.90
2018-11-01T15:10:21.978Z,21.80
2018-11-01T15:12:51.087Z,22.00
2018-11-01T15:15:19.789Z,23.00
2018-11-01T15:17:50.447Z,17.80
2018-11-01T15:20:19.511Z,18.60
2018-11-01T15:22:48.269Z,23.70
2018-11-01T15:25:16.944Z,15.43
2018-11-01T15:27:45.735Z,18.83
2018-11-01T15:30:16.506Z,15.97
2018-11-01T15:32:45.281Z,16.57
2018-11-01T15:35:14.448Z,15.83
2018-11-01T15:37:43.345Z,12.07
2018-11-01T15:40:14.854Z,17.30
2018-11-01T15:42:44.204Z,14.03
2018-11-01T15:45:13.855Z,11.97
2018-11-01T15:47:43.080Z,15.80
2018-11-01T15:50:12.801Z,17.37
2018-11-01T15:52:41.622Z,15.43
2018-11-01T15:55:10.720Z,18.40
2018-11-01T15:57:39.493Z,18.63
2018-11-01T16:00:10.649Z,17.57
2018-11-01T16:02:40.742Z,11.33
2018-11-01T16:05:09.933Z,15.90
2018-11-01T16:07:38.734Z,15.63
2018-11-01T16:10:08.389Z,17.83
2018-11-01T16:12:37.334Z,14.83
2018-11-01T16:15:07.908Z,15.63
2018-11-01T16:17:36.638Z,16.73
2018-11-01T16:20:06.152Z,15.87
2018-11-01T16:22:34.870Z,17.13
2018-11-01T16:25:03.809Z,17.30
2018-11-01T16:27:33.905Z,16.03
2018-11-01T16:30:06.463Z,20.70
2018-11-01T16:32:35.155Z,18.87
2018-11-01T16:35:04.030Z,14.03
2018-11-01T16:37:32.807Z,15.47
2018-11-01T16:40:01.593Z,17.40
2018-11-01T16:42:30.588Z,16.47
2018-11-01T16:44:59.980Z,17.13
2018-11-01T16:47:28.642Z,15.43
2018-11-01T16:49:57.393Z,16.10
2018-11-01T16:52:26.137Z,16.50
2018-11-01T16:54:54.836Z,18.47
2018-11-01T16:57:23.562Z,19.17
2018-11-01T16:59:52.351Z,21.60
2018-11-01T17:02:21.158Z,17.53
2018-11-01T17:04:50.601Z,18.53
2018-11-01T17:07:19.535Z,19.10
2018-11-01T17:09:48.263Z,18.77
2018-11-01T17:12:17.053Z,20.10
2018-11-01T17:14:45.765Z,17.17
2018-11-01T17:17:14.428Z,19.60
2018-11-01T17:19:43.156Z,20.63
2018-11-01T17:22:11.949Z,22.40
2018-11-01T17:24:41.877Z,26.13
2018-11-01T17:27:10.580Z,23.40
2018-11-01T17:29:39.356Z,19.13
2018-11-01T17:32:08.032Z,18.93
2018-11-01T17:34:37.181Z,21.87
2018-11-01T17:37:06.169Z,27.17
2018-11-01T17:39:34.921Z,19.90
2018-11-01T17:42:03.663Z,14.27
2018-11-01T17:44:32.397Z,21.57
2018-11-01T17:47:01.196Z,18.30
2018-11-01T17:49:29.958Z,18.47
2018-11-01T17:51:58.677Z,21.53
2018-11-01T17:54:28.259Z,21.03
2018-11-01T17:56:57.837Z,17.07
2018-11-01T17:59:34.478Z,23.30
2018-11-01T18:02:04.659Z,14.20
2018-11-01T18:04:33.337Z,20.17
2018-11-01T18:07:02.087Z,18.07
2018-11-01T18:09:30.795Z,19.40
2018-11-01T18:11:59.920Z,21.60
2018-11-01T18:14:28.747Z,15.87
2018-11-01T18:16:57.434Z,18.43
2018-11-01T18:19:26.124Z,19.50
2018-11-01T18:21:54.983Z,17.07
2018-11-01T18:24:23.785Z,15.60
2018-11-01T18:26:52.476Z,21.03
2018-11-01T18:29:21.907Z,19.97
2018-11-01T18:31:50.620Z,24.53
2018-11-01T18:34:19.481Z,20.83
2018-11-01T18:36:48.161Z,20.60
2018-11-01T18:39:17.021Z,19.80
2018-11-01T18:41:45.785Z,20.57
2018-11-01T18:44:14.486Z,20.57
2018-11-01T18:46:43.331Z,19.97
2018-11-01T18:49:12.072Z,22.90
2018-11-01T18:51:40.768Z,21.73
2018-11-01T18:54:09.621Z,25.17
2018-11-01T18:56:38.440Z,22.43
2018-11-01T18:59:07.163Z,25.60
2018-11-01T19:01:36.013Z,20.93
2018-11-01T19:04:04.932Z,21.97
2018-11-01T19:13:20.834Z,17.30
2018-11-01T19:15:49.678Z,17.57
2018-11-01T19:18:18.376Z,17.83
2018-11-01T19:20:47.216Z,17.63
2018-11-01T19:23:16.006Z,18.63
2018-11-01T19:25:45.742Z,20.90
2018-11-01T19:28:14.538Z,22.87
2018-11-01T19:30:43.185Z,24.87
2018-11-01T19:33:11.941Z,23.03
2018-11-01T19:35:40.667Z,21.33
2018-11-01T19:38:09.399Z,29.77
2018-11-01T19:40:38.176Z,24.97
2018-11-01T19:43:06.826Z,23.80
2018-11-01T19:45:35.512Z,21.00
2018-11-01T19:48:04.309Z,18.00
2018-11-01T19:50:33.025Z,22.57
2018-11-01T19:53:01.714Z,21.70
2018-11-01T19:55:30.677Z,17.73
2018-11-01T19:57:59.393Z,23.30
2018-11-01T20:00:28.112Z,20.03
2018-11-01T20:02:56.843Z,18.77
2018-11-01T20:05:25.559Z,17.40
2018-11-01T20:07:54.296Z,15.27
2018-11-01T20:10:23.109Z,19.73
2018-11-01T20:12:51.789Z,12.73
2018-11-01T20:15:20.515Z,15.13
2018-11-01T20:17:49.228Z,19.67
2018-11-01T20:20:17.909Z,14.47
2018-11-01T20:22:46.763Z,20.73
2018-11-01T20:25:15.561Z,21.07
2018-11-01T20:27:44.319Z,15.83
2018-11-01T20:30:15.333Z,18.70
2018-11-01T20:32:47.076Z,15.93
2018-11-01T20:35:17.128Z,16.67
2018-11-01T20:37:45.904Z,19.57
2018-11-01T20:40:14.600Z,18.27
2018-11-01T20:42:43.810Z,18.80
2018-11-01T20:45:13.409Z,18.70
2018-11-01T20:47:42.161Z,21.50
2018-11-01T20:50:12.089Z,17.93
2018-11-01T20:52:40.800Z,20.43
2018-11-01T20:55:10.090Z,25.73
2018-11-01T20:57:39.288Z,29.80
2018-11-01T21:00:13.600Z,28.70
2018-11-01T21:02:42.404Z,26.43
2018-11-01T21:05:12.501Z,36.40
2018-11-01T21:07:41.160Z,34.90
2018-11-01T21:10:10.799Z,31.50
2018-11-01T21:12:39.914Z,35.80
2018-11-01T21:15:10.522Z,38.53
2018-11-01T21:17:39.322Z,40.57
2018-11-01T21:20:08.374Z,38.43
2018-11-01T21:22:37.102Z,38.67
2018-11-01T21:25:06.314Z,33.40
2018-11-01T21:27:34.970Z,38.10
2018-11-01T21:30:07.896Z,40.30
2018-11-01T21:32:36.609Z,38.43
2018-11-01T21:35:06.085Z,40.67
2018-11-01T21:37:34.633Z,46.00
2018-11-01T21:40:03.379Z,48.67
2018-11-01T21:42:32.105Z,52.57
2018-11-01T21:45:00.869Z,43.40
2018-11-01T21:47:29.575Z,46.27
2018-11-01T21:49:58.308Z,43.73
2018-11-01T21:52:27.001Z,40.63
2018-11-01T21:54:55.779Z,42.00
2018-11-01T21:57:24.509Z,39.07
2018-11-01T21:59:53.268Z,40.87
2018-11-01T22:02:22.024Z,41.07
2018-11-01T22:04:50.844Z,43.83
2018-11-01T22:07:19.956Z,39.70
2018-11-01T22:09:48.698Z,39.67
2018-11-01T22:12:17.368Z,40.77
2018-11-01T22:14:46.075Z,42.53
2018-11-01T22:17:15.089Z,42.20
2018-11-01T22:19:43.871Z,39.70
2018-11-01T22:22:12.557Z,45.37
2018-11-01T22:24:41.264Z,40.97
2018-11-01T22:27:09.975Z,41.57
2018-11-01T22:29:38.649Z,38.27
2018-11-01T22:32:07.425Z,40.63
2018-11-01T22:34:36.091Z,43.07
2018-11-01T22:37:04.789Z,40.17
2018-11-01T22:39:33.497Z,41.27
2018-11-01T22:42:02.438Z,42.37
2018-11-01T22:44:31.102Z,41.80
2018-11-01T22:46:59.810Z,37.93
2018-11-01T22:49:28.573Z,42.50
2018-11-01T22:51:57.335Z,52.60
2018-11-01T22:54:26.014Z,50.67
2018-11-01T22:56:54.757Z,45.17
2018-11-01T22:59:23.469Z,46.70
2018-11-01T23:01:52.228Z,50.03
2018-11-01T23:04:21.013Z,48.00
2018-11-01T23:06:49.961Z,46.30
2018-11-01T23:09:18.727Z,47.20
2018-11-01T23:11:47.485Z,48.00
2018-11-01T23:14:16.177Z,46.93
2018-11-01T23:16:45.562Z,47.67
2018-11-01T23:19:14.482Z,47.43
2018-11-01T23:21:43.164Z,45.00
2018-11-01T23:24:11.868Z,43.77
2018-11-01T23:26:40.517Z,45.30
2018-11-01T23:29:09.781Z,46.97
2018-11-01T23:31:38.531Z,46.20
2018-11-01T23:34:07.316Z,46.00
2018-11-01T23:36:41.161Z,50.73
2018-11-01T23:39:15.109Z,49.20
2018-11-01T23:41:48.942Z,42.37
2018-11-01T23:44:22.894Z,44.37
2018-11-01T23:46:56.859Z,41.03
2018-11-01T23:49:29.288Z,43.03
2018-11-01T23:52:03.153Z,42.67
2018-11-01T23:54:31.842Z,43.50
2018-11-01T23:57:00.536Z,43.27
2018-11-01T23:59:29.210Z,40.77
